Time;durP1;ratioP1;P1;durP2;ratioP2;P2;SDS_P1;SDS_P2;PMS_P1;PMS_P2;Temp;Humidity;BMP_temperature;BMP_pressure;BME280_temperature;BME280_humidity;BME280_pressure;Samples;Min_cycle;Max_cycle;Signal;HPM_P1;HPM_P2
2022/11/09 00:01:16;;;;;;;;;;;;;;;18.90;100.00;98103.16;5017313;28;19978;-44
2022/11/09 00:03:41;;;;;;;;;;;;;;;18.30;100.00;98107.88;5015205;28;19921;-43
2022/11/09 00:06:06;;;;;;;;;;;;;;;18.48;100.00;98111.63;5017477;28;19940;-44
2022/11/09 00:08:31;;;;;;;;;;;;;;;18.62;100.00;98107.94;5017090;28;19921;-44
2022/11/09 00:11:04;;;;;;;;;;;;;;;18.36;100.00;98113.44;5018401;28;19952;-43
2022/11/09 00:13:29;;;;;;;;;;;;;;;18.57;100.00;98104.88;5017006;28;19924;-43
2022/11/09 00:15:57;;;;;;;;;;;;;;;18.46;100.00;98091.84;5018676;28;19925;-44
2022/11/09 00:18:22;;;;;;;;;;;;;;;18.52;100.00;98097.41;5018565;28;19956;-44
2022/11/09 00:20:47;;;;;;;;;;;;;;;18.18;100.00;98117.47;5017356;28;20030;-43
2022/11/09 00:23:13;;;;;;;;;;;;;;;17.87;100.00;98112.00;5016015;28;19967;-44
2022/11/09 00:25:38;;;;;;;;;;;;;;;18.67;100.00;98095.34;5016692;28;20004;-44
2022/11/09 00:28:03;;;;;;;;;;;;;;;17.89;100.00;98110.09;5016560;28;20007;-44
2022/11/09 00:30:29;;;;;;;;;;;;;;;18.49;100.00;98094.22;5016777;28;19921;-44
2022/11/09 00:32:55;;;;;;;;;;;;;;;18.51;100.00;98100.13;5017355;28;19925;-43
2022/11/09 00:35:20;;;;;;;;;;;;;;;18.30;100.00;98098.25;5018778;28;19921;-44
2022/11/09 00:37:45;;;;;;;;;;;;;;;18.14;100.00;98098.63;5014417;28;20385;-44
2022/11/09 00:40:10;;;;;;;;;;;;;;;18.17;100.00;98105.38;5016196;28;20732;-43
2022/11/09 00:42:36;;;;;;;;;;;;;;;18.34;100.00;98102.28;5018067;28;20481;-44
2022/11/09 00:45:01;;;;;;;;;;;;;;;18.76;100.00;98094.63;5017451;28;19921;-44
2022/11/09 00:47:26;;;;;;;;;;;;;;;18.38;100.00;98101.09;5017532;28;20294;-43
2022/11/09 00:49:51;;;;;;;;;;;;;;;18.53;100.00;98093.03;5015458;28;20281;-44
2022/11/09 00:52:16;;;;;;;;;;;;;;;18.21;100.00;98104.19;5019292;28;20326;-44
2022/11/09 00:54:42;;;;;;;;;;;;;;;18.25;100.00;98099.59;5016771;28;19952;-44
2022/11/09 00:57:07;;;;;;;;;;;;;;;18.17;100.00;98103.59;5018642;28;19921;-44
2022/11/09 00:59:32;;;;;;;;;;;;;;;18.46;100.00;98091.84;5018222;28;19928;-44
2022/11/09 01:01:57;;;;;;;;;;;;;;;18.61;100.00;98075.00;5015288;28;19917;-43
2022/11/09 01:04:22;;;;;;;;;;;;;;;18.14;100.00;98062.13;5011209;28;19917;-43
2022/11/09 01:06:48;;;;;;;;;;;;;;;17.93;100.00;98079.44;5017625;28;19921;-45
2022/11/09 01:09:13;;;;;;;;;;;;;;;18.42;100.00;98080.81;5017833;28;19921;-43
2022/11/09 01:11:38;;;;;;;;;;;;;;;18.44;100.00;98091.13;5017608;28;19917;-43
2022/11/09 01:14:03;;;;;;;;;;;;;;;18.44;100.00;98093.75;5017259;28;19971;-43
2022/11/09 01:16:29;;;;;;;;;;;;;;;18.28;100.00;98091.50;5016692;28;19975;-43
2022/11/09 01:18:54;;;;;;;;;;;;;;;18.35;100.00;98090.91;5015057;28;19924;-44
2022/11/09 01:21:19;;;;;;;;;;;;;;;18.11;100.00;98085.00;5017863;28;19944;-43
2022/11/09 01:23:45;;;;;;;;;;;;;;;18.23;100.00;98097.09;5019341;28;19986;-43
2022/11/09 01:26:11;;;;;;;;;;;;;;;18.18;100.00;98094.84;5017091;28;19921;-44
2022/11/09 01:28:36;;;;;;;;;;;;;;;18.50;100.00;98094.09;5018680;28;19944;-44
2022/11/09 01:31:02;;;;;;;;;;;;;;;18.09;100.00;98094.72;5017216;28;19917;-44
2022/11/09 01:33:27;;;;;;;;;;;;;;;18.22;100.00;98077.16;5018654;28;19921;-43
2022/11/09 01:35:52;;;;;;;;;;;;;;;18.31;100.00;98093.88;5018733;28;19928;-44
2022/11/09 01:38:18;;;;;;;;;;;;;;;18.29;100.00;98091.41;5019886;28;19924;-43
2022/11/09 01:40:43;;;;;;;;;;;;;;;18.48;100.00;98080.34;5022307;28;19921;-44
2022/11/09 01:43:13;;;;;;;;;;;;;;;18.04;100.00;98087.28;5021837;28;19920;-44
2022/11/09 01:45:39;;;;;;;;;;;;;;;18.22;100.00;98084.16;5021722;28;20180;-44
2022/11/09 01:48:09;;;;;;;;;;;;;;;18.70;100.00;98074.25;5019281;28;19921;-44
2022/11/09 01:50:39;;;;;;;;;;;;;;;18.24;100.00;98072.66;5020352;28;19994;-44
2022/11/09 01:53:05;;;;;;;;;;;;;;;18.22;100.00;98089.38;5020658;28;19926;-43
2022/11/09 01:55:30;;;;;;;;;;;;;;;18.29;100.00;98094.00;5019912;28;19924;-43
2022/11/09 01:58:03;;;;;;;;;;;;;;;18.15;100.00;98084.66;5019935;28;19917;-44
2022/11/09 02:00:29;;;;;;;;;;;;;;;18.23;100.00;98078.84;5019266;28;19921;-44
2022/11/09 02:02:55;;;;;;;;;;;;;;;18.56;100.00;98072.72;5019984;28;19931;-44
2022/11/09 02:05:22;;;;;;;;;;;;;;;17.70;100.00;98089.00;5022095;28;19918;-44
2022/11/09 02:07:48;;;;;;;;;;;;;;;18.18;100.00;98083.59;5020839;28;19974;-43
2022/11/09 02:10:28;;;;;;;;;;;;;;;18.03;100.00;98084.78;5018405;28;19929;-44
2022/11/09 02:12:53;;;;;;;;;;;;;;;17.83;100.00;98084.50;5021322;28;19925;-44
2022/11/09 02:15:19;;;;;;;;;;;;;;;17.93;100.00;98077.66;5021563;28;19991;-43
2022/11/09 02:17:44;;;;;;;;;;;;;;;17.67;100.00;98086.59;5019577;28;20023;-44
2022/11/09 02:20:13;;;;;;;;;;;;;;;17.80;100.00;98076.09;5020227;28;19929;-44
2022/11/09 02:22:38;;;;;;;;;;;;;;;18.14;100.00;98079.56;5021160;28;19928;-44
2022/11/09 02:25:04;;;;;;;;;;;;;;;17.75;100.00;98086.84;5018460;28;19925;-44
2022/11/09 02:27:29;;;;;;;;;;;;;;;17.79;100.00;98088.28;5021012;28;19925;-43
2022/11/09 02:29:54;;;;;;;;;;;;;;;18.12;100.00;98084.06;5018442;28;19928;-44
2022/11/09 02:32:20;;;;;;;;;;;;;;;18.22;100.00;98077.16;5019099;28;19921;-44
2022/11/09 02:34:45;;;;;;;;;;;;;;;17.90;100.00;98083.13;5019588;28;19925;-44
2022/11/09 02:37:10;;;;;;;;;;;;;;;17.90;100.00;98085.72;5018628;28;19952;-44
2022/11/09 02:39:36;;;;;;;;;;;;;;;18.27;100.00;98082.88;5018814;28;20010;-44
2022/11/09 02:42:02;;;;;;;;;;;;;;;17.54;100.00;98084.94;5019572;28;19966;-44
2022/11/09 02:44:27;;;;;;;;;;;;;;;17.92;100.00;98078.59;5036324;28;19917;-44
2022/11/09 02:46:52;;;;;;;;;;;;;;;18.06;100.00;98071.50;5019889;28;19917;-43
2022/11/09 02:49:17;;;;;;;;;;;;;;;18.19;100.00;98078.25;5019189;28;20282;-44
2022/11/09 02:51:43;;;;;;;;;;;;;;;18.26;100.00;98062.94;5019583;28;20451;-43
2022/11/09 02:54:08;;;;;;;;;;;;;;;18.23;100.00;98063.22;5020799;28;20668;-44
2022/11/09 02:56:33;;;;;;;;;;;;;;;18.18;100.00;98057.53;5018752;28;19971;-44
2022/11/09 02:58:58;;;;;;;;;;;;;;;18.43;100.00;98066.84;5020391;28;19921;-44
2022/11/09 03:01:24;;;;;;;;;;;;;;;18.19;100.00;98065.22;5019592;28;19925;-43
2022/11/09 03:03:49;;;;;;;;;;;;;;;18.10;100.00;98075.53;5018907;28;19926;-43
2022/11/09 03:06:14;;;;;;;;;;;;;;;18.37;100.00;98057.72;5019139;28;19925;-44
2022/11/09 03:08:39;;;;;;;;;;;;;;;17.75;100.00;98069.44;5020339;28;20434;-44
2022/11/09 03:11:05;;;;;;;;;;;;;;;18.19;100.00;98069.59;5020652;28;20334;-44
2022/11/09 03:13:30;;;;;;;;;;;;;;;17.79;100.00;98064.84;5020889;28;19917;-44
2022/11/09 03:15:55;;;;;;;;;;;;;;;18.05;100.00;98077.66;5019868;28;19952;-44
2022/11/09 03:18:21;;;;;;;;;;;;;;;18.11;100.00;98071.97;5019059;28;19921;-44
2022/11/09 03:20:46;;;;;;;;;;;;;;;18.14;100.00;98072.56;5021284;28;19927;-44
2022/11/09 03:23:11;;;;;;;;;;;;;;;17.80;100.00;98079.53;5020444;28;20003;-44
2022/11/09 03:25:36;;;;;;;;;;;;;;;17.90;100.00;98071.84;5019788;28;20029;-44
2022/11/09 03:28:03;;;;;;;;;;;;;;;17.97;100.00;98079.09;5018501;28;19921;-43
2022/11/09 03:30:28;;;;;;;;;;;;;;;17.83;100.00;98079.31;5018441;28;20341;-43
2022/11/09 03:33:00;;;;;;;;;;;;;;;18.23;100.00;98086.66;5020595;28;19925;-44
2022/11/09 03:35:26;;;;;;;;;;;;;;;17.90;100.00;98085.72;5017468;28;19925;-44
2022/11/09 03:37:51;;;;;;;;;;;;;;;17.28;100.00;98088.63;5019770;28;19917;-44
2022/11/09 03:40:16;;;;;;;;;;;;;;;17.89;100.00;98096.25;5018503;28;19921;-44
2022/11/09 03:42:42;;;;;;;;;;;;;;;18.05;100.00;98095.91;5020506;28;19952;-44
2022/11/09 03:45:07;;;;;;;;;;;;;;;17.37;100.00;98100.97;5018742;28;19960;-44
2022/11/09 03:47:32;;;;;;;;;;;;;;;17.28;100.00;98097.28;5018534;28;19917;-44
2022/11/09 03:49:58;;;;;;;;;;;;;;;17.84;100.00;98096.59;5017601;28;19917;-44
2022/11/09 03:52:23;;;;;;;;;;;;;;;17.76;100.00;98094.53;5019249;28;19921;-44
2022/11/09 03:54:48;;;;;;;;;;;;;;;18.06;100.00;98090.56;5019232;28;20028;-44
2022/11/09 03:57:13;;;;;;;;;;;;;;;18.08;100.00;98078.25;5018826;28;20024;-44
2022/11/09 03:59:38;;;;;;;;;;;;;;;17.98;100.00;98082.53;5016499;28;20043;-44
2022/11/09 04:02:04;;;;;;;;;;;;;;;17.96;100.00;98084.41;5018943;28;19924;-44
2022/11/09 04:04:29;;;;;;;;;;;;;;;17.97;100.00;98093.88;5018273;28;19917;-43
2022/11/09 04:06:54;;;;;;;;;;;;;;;17.77;100.00;98090.19;5018036;28;19921;-44
2022/11/09 04:09:19;;;;;;;;;;;;;;;17.81;100.00;98086.41;5019382;28;19920;-43
2022/11/09 04:11:45;;;;;;;;;;;;;;;17.85;100.00;98090.44;5020242;28;19928;-44
2022/11/09 04:14:10;;;;;;;;;;;;;;;17.80;100.00;98097.75;5017739;28;19925;-43
2022/11/09 04:16:35;;;;;;;;;;;;;;;17.32;100.00;98096.09;5020420;28;19921;-44
2022/11/09 04:19:00;;;;;;;;;;;;;;;17.66;100.00;98108.38;5016279;28;19927;-44
2022/11/09 04:21:25;;;;;;;;;;;;;;;17.66;100.00;98092.75;5019470;28;20022;-44
2022/11/09 04:23:51;;;;;;;;;;;;;;;17.79;100.00;98103.91;5020327;28;19941;-44
2022/11/09 04:26:16;;;;;;;;;;;;;;;17.49;100.00;98105.28;5019326;28;20006;-44
2022/11/09 04:28:41;;;;;;;;;;;;;;;17.97;100.00;98097.34;5013920;28;19922;-43
2022/11/09 04:31:06;;;;;;;;;;;;;;;17.91;100.00;98097.78;5010582;28;19917;-44
2022/11/09 04:33:32;;;;;;;;;;;;;;;17.84;100.00;98101.81;5016082;28;20278;-44
2022/11/09 04:36:00;;;;;;;;;;;;;;;17.83;100.00;98107.94;5015858;28;21212;-44
2022/11/09 04:38:25;;;;;;;;;;;;;;;17.90;100.00;98101.34;5008890;28;20007;-43
2022/11/09 04:40:51;;;;;;;;;;;;;;;17.59;100.00;98115.81;5010787;28;19928;-44
2022/11/09 04:43:16;;;;;;;;;;;;;;;17.43;100.00;98123.13;5008502;28;19917;-43
2022/11/09 04:45:41;;;;;;;;;;;;;;;17.87;100.00;98112.00;5008745;28;19996;-44
2022/11/09 04:48:07;;;;;;;;;;;;;;;17.90;100.00;98106.56;5011687;28;19931;-44
2022/11/09 04:50:32;;;;;;;;;;;;;;;18.13;100.00;98106.56;5017958;28;19921;-44
2022/11/09 04:53:04;;;;;;;;;;;;;;;17.85;100.00;98108.66;5018757;28;20634;-43
2022/11/09 04:55:30;;;;;;;;;;;;;;;17.93;100.00;98111.53;5018436;28;19929;-44
2022/11/09 04:57:55;;;;;;;;;;;;;;;17.74;100.00;98117.28;5017873;28;19975;-43
2022/11/09 05:00:20;;;;;;;;;;;;;;;17.48;100.00;98111.41;5015978;28;20286;-43
2022/11/09 05:02:45;;;;;;;;;;;;;;;17.93;100.00;98119.34;5014612;28;19967;-43
2022/11/09 05:05:11;;;;;;;;;;;;;;;18.21;100.00;98106.78;5016876;28;19921;-44
2022/11/09 05:07:36;;;;;;;;;;;;;;;17.61;100.00;98120.91;5015364;28;19928;-45
2022/11/09 05:10:01;;;;;;;;;;;;;;;18.03;100.00;98113.44;5015377;28;19928;-44
2022/11/09 05:12:26;;;;;;;;;;;;;;;18.00;100.00;98111.06;5017745;28;19963;-44
2022/11/09 05:14:51;;;;;;;;;;;;;;;17.60;100.00;98109.66;5021246;28;20546;-43
2022/11/09 05:17:17;;;;;;;;;;;;;;;17.69;100.00;98110.75;5020866;28;20797;-43
2022/11/09 05:19:42;;;;;;;;;;;;;;;18.14;100.00;98095.19;5022291;28;19940;-43
2022/11/09 05:24:51;;;;;;;;;;;;;;;17.72;100.00;98098.34;5021599;28;19970;-44
2022/11/09 05:27:16;;;;;;;;;;;;;;;17.41;100.00;98094.59;5022195;28;20008;-44
2022/11/09 05:29:41;;;;;;;;;;;;;;;17.48;100.00;98116.63;5022311;28;19917;-44
2022/11/09 05:32:06;;;;;;;;;;;;;;;17.31;100.00;98115.28;5022756;28;19913;-44
2022/11/09 05:34:32;;;;;;;;;;;;;;;17.69;100.00;98113.34;5023581;28;20294;-44
2022/11/09 05:36:57;;;;;;;;;;;;;;;17.41;100.00;98109.41;5021488;28;19928;-43
2022/11/09 05:39:22;;;;;;;;;;;;;;;17.53;100.00;98109.28;5021575;28;20359;-44
2022/11/09 05:41:47;;;;;;;;;;;;;;;17.52;100.00;98112.84;5023108;28;20425;-43
2022/11/09 05:44:13;;;;;;;;;;;;;;;17.46;100.00;98118.50;5022907;28;20378;-43
2022/11/09 05:46:38;;;;;;;;;;;;;;;17.56;100.00;98106.47;5021192;28;20416;-44
2022/11/09 05:49:03;;;;;;;;;;;;;;;18.01;100.00;98102.28;5022076;28;20367;-44
2022/11/09 05:51:28;;;;;;;;;;;;;;;17.37;100.00;98110.56;5021553;28;20359;-44
2022/11/09 05:53:53;;;;;;;;;;;;;;;17.48;100.00;98116.63;5021622;28;19936;-44
2022/11/09 05:56:19;;;;;;;;;;;;;;;17.44;100.00;98115.19;5021857;28;19932;-44
2022/11/09 05:58:44;;;;;;;;;;;;;;;17.19;100.00;98129.19;5022286;28;19920;-44
2022/11/09 06:01:13;;;;;;;;;;;;;;;17.29;100.00;98131.97;5022553;28;19921;-44
2022/11/09 06:03:40;;;;;;;;;;;;;;;17.73;100.00;98140.84;5017888;28;19921;-43
2022/11/09 06:06:06;;;;;;;;;;;;;;;17.51;100.00;98132.00;5021841;28;19917;-43
2022/11/09 06:08:31;;;;;;;;;;;;;;;17.78;100.00;98123.06;5021527;28;20028;-44
2022/11/09 06:10:58;;;;;;;;;;;;;;;17.30;100.00;98121.41;5021583;28;19927;-48
2022/11/09 06:13:23;;;;;;;;;;;;;;;17.33;100.00;98129.00;5020483;28;19967;-45
2022/11/09 06:15:52;;;;;;;;;;;;;;;17.27;100.00;98133.84;5021690;28;19921;-45
2022/11/09 06:18:18;;;;;;;;;;;;;;;17.40;100.00;98147.59;5021890;28;20402;-44
2022/11/09 06:20:43;;;;;;;;;;;;;;;17.41;100.00;98146.66;5021636;28;20015;-44
2022/11/09 06:23:08;;;;;;;;;;;;;;;17.73;100.00;98146.88;5021950;28;20016;-45
2022/11/09 06:25:34;;;;;;;;;;;;;;;17.14;100.00;98155.53;5021142;28;20075;-45
2022/11/09 06:27:59;;;;;;;;;;;;;;;17.81;100.00;98166.28;5021568;28;20333;-44
2022/11/09 06:30:24;;;;;;;;;;;;;;;17.27;100.00;98171.09;5021228;28;19925;-44
2022/11/09 06:32:50;;;;;;;;;;;;;;;17.11;100.00;98180.94;5021484;28;20382;-43
2022/11/09 06:35:15;;;;;;;;;;;;;;;17.08;100.00;98171.59;5021258;28;19925;-43
2022/11/09 06:37:40;;;;;;;;;;;;;;;17.47;100.00;98172.25;5020969;28;20027;-43
2022/11/09 06:40:06;;;;;;;;;;;;;;;16.62;100.00;98189.59;5020974;28;19971;-43
2022/11/09 06:42:31;;;;;;;;;;;;;;;16.50;100.00;98199.88;5021814;28;20363;-43
2022/11/09 06:44:56;;;;;;;;;;;;;;;16.26;100.00;98194.63;5019716;28;19963;-43
2022/11/09 06:47:21;;;;;;;;;;;;;;;16.76;100.00;98194.63;5021397;28;19924;-43
2022/11/09 06:49:47;;;;;;;;;;;;;;;16.84;100.00;98212.34;5021175;28;19917;-43
2022/11/09 06:52:12;;;;;;;;;;;;;;;16.93;100.00;98203.91;5020410;28;19939;-43
2022/11/09 06:54:37;;;;;;;;;;;;;;;17.08;100.00;98197.63;5022080;28;19921;-44
2022/11/09 06:57:02;;;;;;;;;;;;;;;16.75;100.00;98206.00;5020651;28;19965;-44
2022/11/09 06:59:28;;;;;;;;;;;;;;;17.08;100.00;98205.41;5021114;28;20030;-44
2022/11/09 07:01:53;;;;;;;;;;;;;;;17.50;100.00;98213.66;5019941;28;19921;-44
2022/11/09 07:04:18;;;;;;;;;;;;;;;17.05;100.00;98212.59;5019974;28;20026;-45
2022/11/09 07:06:43;;;;;;;;;;;;;;;17.49;100.00;98209.41;5020732;28;20101;-43
2022/11/09 07:09:09;;;;;;;;;;;;;;;17.58;100.00;98215.69;5018765;28;19917;-44
2022/11/09 07:11:34;;;;;;;;;;;;;;;17.60;100.00;98218.19;5020628;28;19921;-43
2022/11/09 07:14:01;;;;;;;;;;;;;;;17.00;100.00;98225.94;5020883;28;19956;-45
2022/11/09 07:16:27;;;;;;;;;;;;;;;17.50;100.00;98224.06;5019608;28;20006;-44
2022/11/09 07:18:52;;;;;;;;;;;;;;;17.12;100.00;98222.44;5020156;28;20134;-44
2022/11/09 07:21:17;;;;;;;;;;;;;;;17.58;100.00;98217.47;5020816;28;20015;-44
2022/11/09 07:23:42;;;;;;;;;;;;;;;17.78;100.00;98211.63;5019529;28;19999;-44
2022/11/09 07:26:07;;;;;;;;;;;;;;;17.72;100.00;98204.25;5020706;28;20006;-44
2022/11/09 07:28:33;;;;;;;;;;;;;;;17.74;100.00;98199.78;5018534;28;19957;-44
2022/11/09 07:30:58;;;;;;;;;;;;;;;18.03;100.00;98204.63;5019023;28;19927;-44
2022/11/09 07:33:24;;;;;;;;;;;;;;;18.02;100.00;98192.53;5019550;28;19951;-44
2022/11/09 07:35:49;;;;;;;;;;;;;;;18.45;100.00;98194.47;5019320;28;20236;-45
2022/11/09 07:38:15;;;;;;;;;;;;;;;18.55;100.00;98185.81;5020321;28;20302;-44
2022/11/09 07:40:40;;;;;;;;;;;;;;;18.66;100.00;98194.59;5020279;28;19913;-44
2022/11/09 07:43:05;;;;;;;;;;;;;;;18.09;100.00;98197.16;5020323;28;20389;-44
2022/11/09 07:45:31;;;;;;;;;;;;;;;18.34;100.00;98214.38;5020228;28;19999;-44
2022/11/09 07:47:57;;;;;;;;;;;;;;;17.91;100.00;98233.25;5019452;28;20291;-44
2022/11/09 07:50:22;;;;;;;;;;;;;;;18.03;100.00;98235.88;5018855;28;19917;-46
2022/11/09 07:52:47;;;;;;;;;;;;;;;17.75;100.00;98240.50;5019088;28;19972;-46
2022/11/09 07:55:13;;;;;;;;;;;;;;;17.42;100.00;98242.00;5019331;28;19967;-46
2022/11/09 07:57:38;;;;;;;;;;;;;;;16.96;100.00;98247.88;5020379;28;19917;-46
2022/11/09 08:00:03;;;;;;;;;;;;;;;16.88;100.00;98248.44;5019471;28;19913;-47
2022/11/09 08:02:29;;;;;;;;;;;;;;;17.23;100.00;98234.69;5017481;28;20452;-45
2022/11/09 08:04:54;;;;;;;;;;;;;;;17.26;100.00;98224.06;5020150;28;19921;-48
2022/11/09 08:07:19;;;;;;;;;;;;;;;17.41;100.00;98224.75;5019957;28;19923;-46
2022/11/09 08:09:44;;;;;;;;;;;;;;;17.06;100.00;98233.31;5017814;28;19925;-50
2022/11/09 08:12:09;;;;;;;;;;;;;;;15.91;100.00;98261.09;5019639;28;19921;-46
2022/11/09 08:14:35;;;;;;;;;;;;;;;16.76;100.00;98227.63;5020031;28;19920;-47
2022/11/09 08:17:00;;;;;;;;;;;;;;;16.10;100.00;98245.94;5019690;28;19917;-47
2022/11/09 08:19:25;;;;;;;;;;;;;;;16.55;100.00;98245.53;5018748;28;19921;-47
2022/11/09 08:21:56;;;;;;;;;;;;;;;16.80;100.00;98250.72;5019727;28;19928;-46
2022/11/09 08:24:21;;;;;;;;;;;;;;;16.93;100.00;98245.50;5006928;28;19924;-48
2022/11/09 08:26:46;;;;;;;;;;;;;;;16.82;100.00;98245.44;5019686;28;20323;-46
2022/11/09 08:29:14;;;;;;;;;;;;;;;16.72;100.00;98253.84;5019189;28;19924;-47
2022/11/09 08:31:39;;;;;;;;;;;;;;;16.07;100.00;98259.94;5019721;28;19917;-45
2022/11/09 08:34:04;;;;;;;;;;;;;;;16.58;100.00;98256.56;5018268;28;20845;-45
2022/11/09 08:36:31;;;;;;;;;;;;;;;16.92;100.00;98246.44;5019328;28;19932;-45
2022/11/09 08:38:58;;;;;;;;;;;;;;;16.81;100.00;98251.56;5018667;28;19913;-46
2022/11/09 08:41:23;;;;;;;;;;;;;;;16.75;100.00;98238.97;5018384;28;19943;-45
2022/11/09 08:43:48;;;;;;;;;;;;;;;17.39;100.00;98236.22;5020218;28;20549;-46
2022/11/09 08:46:13;;;;;;;;;;;;;;;18.03;100.00;98236.72;5018629;28;21050;-45
2022/11/09 08:48:39;;;;;;;;;;;;;;;17.26;100.00;98238.84;5018900;28;20024;-45
2022/11/09 08:51:04;;;;;;;;;;;;;;;17.00;100.00;98251.13;5019432;28;20007;-45
2022/11/09 08:53:29;;;;;;;;;;;;;;;16.63;100.00;98259.69;5019554;28;19994;-45
2022/11/09 08:55:55;;;;;;;;;;;;;;;16.98;100.00;98259.03;5019520;28;19921;-44
2022/11/09 08:58:20;;;;;;;;;;;;;;;17.44;100.00;98260.94;5018978;28;20232;-45
2022/11/09 09:00:45;;;;;;;;;;;;;;;17.39;100.00;98252.66;5019424;28;19917;-45
2022/11/09 09:03:10;;;;;;;;;;;;;;;17.94;100.00;98253.84;5018305;28;20306;-45
2022/11/09 09:05:36;;;;;;;;;;;;;;;17.65;100.00;98262.94;5020188;28;19914;-44
2022/11/09 09:08:02;;;;;;;;;;;;;;;17.79;100.00;98262.78;5019566;28;19917;-45
2022/11/09 09:10:28;;;;;;;;;;;;;;;18.00;100.00;98254.34;5018967;28;19917;-45
2022/11/09 09:12:53;;;;;;;;;;;;;;;18.43;100.00;98251.09;5019381;28;19917;-45
2022/11/09 09:15:18;;;;;;;;;;;;;;;18.90;100.00;98241.44;5019459;28;19975;-45
2022/11/09 09:17:43;;;;;;;;;;;;;;;18.90;100.00;98236.22;5019749;28;20048;-45
2022/11/09 09:20:09;;;;;;;;;;;;;;;18.45;100.00;98244.84;5018802;28;19917;-46
2022/11/09 09:22:34;;;;;;;;;;;;;;;18.47;100.00;98245.53;5018650;28;19922;-45
2022/11/09 09:24:59;;;;;;;;;;;;;;;18.75;100.00;98254.69;5018932;28;19982;-45
2022/11/09 09:27:24;;;;;;;;;;;;;;;18.79;100.00;98244.88;5019508;28;19913;-44
2022/11/09 09:29:50;;;;;;;;;;;;;;;18.80;100.00;98247.38;5019615;28;19925;-45
2022/11/09 09:32:15;;;;;;;;;;;;;;;18.58;100.00;98248.16;5018850;28;19913;-45
2022/11/09 09:34:40;;;;;;;;;;;;;;;18.55;100.00;98243.19;5018506;28;19924;-45
2022/11/09 09:37:05;;;;;;;;;;;;;;;18.45;100.00;98251.81;5019406;28;19917;-45
2022/11/09 09:39:31;;;;;;;;;;;;;;;18.22;100.00;98256.16;5018668;28;19927;-46
2022/11/09 09:42:00;;;;;;;;;;;;;;;17.92;100.00;98265.34;5019074;28;19917;-45
2022/11/09 09:44:25;;;;;;;;;;;;;;;18.39;100.00;98264.38;5019896;28;20530;-46
2022/11/09 09:46:53;;;;;;;;;;;;;;;18.15;100.00;98271.44;5019376;28;19967;-45
2022/11/09 09:49:25;;;;;;;;;;;;;;;18.07;100.00;98264.19;5019228;28;19917;-45
2022/11/09 09:51:56;;;;;;;;;;;;;;;17.62;100.00;98278.78;5018010;28;19960;-45
2022/11/09 09:54:23;;;;;;;;;;;;;;;17.21;100.00;98280.81;5010307;28;19925;-44
2022/11/09 09:56:48;;;;;;;;;;;;;;;17.71;100.00;98284.16;5018090;28;19918;-45
2022/11/09 09:59:26;;;;;;;;;;;;;;;17.08;100.00;98298.22;5020880;28;19923;-45
2022/11/09 10:01:51;;;;;;;;;;;;;;;17.12;100.00;98297.91;5021713;28;20392;-45
2022/11/09 10:04:16;;;;;;;;;;;;;;;17.04;100.00;98300.22;5021594;28;19956;-44
2022/11/09 10:06:46;;;;;;;;;;;;;;;17.11;100.00;98290.22;5022848;28;19917;-46
2022/11/09 10:09:11;;;;;;;;;;;;;;;17.47;100.00;98292.00;5020777;28;19936;-45
2022/11/09 10:11:40;;;;;;;;;;;;;;;18.09;100.00;98282.34;5021340;28;19917;-45
2022/11/09 10:14:23;;;;;;;;;;;;;;;17.78;100.00;98287.16;5023082;28;19917;-44
2022/11/09 10:16:48;;;;;;;;;;;;;;;18.18;100.00;98266.84;5022266;28;19969;-45
2022/11/09 10:19:25;;;;;;;;;;;;;;;18.00;100.00;98264.78;5021568;28;20590;-44
2022/11/09 10:21:56;;;;;;;;;;;;;;;17.69;100.00;98273.03;5022727;28;20981;-46
2022/11/09 10:24:40;;;;;;;;;;;;;;;17.85;100.00;98279.75;5021451;28;19917;-45
2022/11/09 10:27:12;;;;;;;;;;;;;;;17.91;100.00;98274.94;5022142;28;20000;-45
2022/11/09 10:29:38;;;;;;;;;;;;;;;17.88;100.00;98280.38;5036284;28;19917;-45
2022/11/09 10:32:14;;;;;;;;;;;;;;;17.96;100.00;98277.19;5017539;28;19928;-45
2022/11/09 10:34:43;;;;;;;;;;;;;;;18.19;100.00;98272.88;5020145;28;19913;-45
2022/11/09 10:37:16;;;;;;;;;;;;;;;18.15;100.00;98274.03;5020937;28;20406;-45
2022/11/09 10:39:43;;;;;;;;;;;;;;;17.89;100.00;98271.59;5020399;28;20037;-45
2022/11/09 10:42:09;;;;;;;;;;;;;;;18.39;100.00;98272.19;5019439;28;19971;-45
2022/11/09 10:44:34;;;;;;;;;;;;;;;18.06;100.00;98277.34;5022062;28;19953;-45
2022/11/09 10:47:00;;;;;;;;;;;;;;;17.86;100.00;98260.56;5020546;28;19990;-45
2022/11/09 10:49:25;;;;;;;;;;;;;;;17.90;100.00;98268.06;5020485;28;20472;-46
2022/11/09 10:51:50;;;;;;;;;;;;;;;18.79;100.00;98263.13;5018948;28;19928;-45
2022/11/09 10:54:20;;;;;;;;;;;;;;;18.05;100.00;98249.63;5018699;28;19920;-46
2022/11/09 10:56:50;;;;;;;;;;;;;;;17.66;100.00;98256.81;5019229;28;19936;-45
2022/11/09 10:59:33;;;;;;;;;;;;;;;18.32;100.00;98242.34;5020238;28;20015;-45
2022/11/09 11:01:58;;;;;;;;;;;;;;;18.49;100.00;98253.25;5021292;28;20000;-45
2022/11/09 11:04:24;;;;;;;;;;;;;;;18.67;100.00;98251.84;5020905;28;20015;-45
2022/11/09 11:06:49;;;;;;;;;;;;;;;18.50;100.00;98240.09;5020321;28;20007;-45
2022/11/09 11:09:15;;;;;;;;;;;;;;;18.24;100.00;98249.91;5020438;28;20305;-45
2022/11/09 11:11:41;;;;;;;;;;;;;;;17.84;100.00;98260.69;5018741;28;19928;-45
2022/11/09 11:14:12;;;;;;;;;;;;;;;18.24;100.00;98244.69;5021313;28;19925;-45
2022/11/09 11:16:37;;;;;;;;;;;;;;;18.13;100.00;98248.13;5021474;28;19932;-45
2022/11/09 11:19:02;;;;;;;;;;;;;;;18.99;100.00;98245.91;5018876;28;19921;-44
2022/11/09 11:21:28;;;;;;;;;;;;;;;19.10;100.00;98245.09;5020806;28;19925;-44
2022/11/09 11:24:11;;;;;;;;;;;;;;;18.85;100.00;98248.78;5021435;28;19967;-45
2022/11/09 11:26:41;;;;;;;;;;;;;;;18.88;100.00;98240.72;5020929;28;19917;-44
2022/11/09 11:29:09;;;;;;;;;;;;;;;18.50;100.00;98250.53;5020229;28;20306;-44
2022/11/09 11:31:35;;;;;;;;;;;;;;;18.57;100.00;98256.13;5021422;28;19929;-44
2022/11/09 11:34:00;;;;;;;;;;;;;;;18.46;100.00;98256.94;5017296;28;19921;-44
2022/11/09 11:36:42;;;;;;;;;;;;;;;18.85;100.00;98259.22;5018473;28;19929;-44
2022/11/09 11:39:23;;;;;;;;;;;;;;;19.26;100.00;98257.75;5020637;28;19917;-44
2022/11/09 11:41:54;;;;;;;;;;;;;;;19.56;100.00;98260.50;5020527;28;19917;-44
2022/11/09 11:44:19;;;;;;;;;;;;;;;19.73;100.00;98253.09;5019707;28;19917;-44
2022/11/09 11:46:46;;;;;;;;;;;;;;;19.29;100.00;98266.16;5018721;28;19932;-44
2022/11/09 11:49:30;;;;;;;;;;;;;;;19.17;100.00;98270.56;5019628;28;20358;-44
2022/11/09 11:51:55;;;;;;;;;;;;;;;18.11;100.00;98264.78;5019964;28;19947;-44
2022/11/09 11:54:20;;;;;;;;;;;;;;;18.68;100.00;98269.16;5021264;28;20501;-44
2022/11/09 11:56:56;;;;;;;;;;;;;;;18.59;100.00;98267.25;5019926;28;19991;-44
2022/11/09 11:59:27;;;;;;;;;;;;;;;18.84;100.00;98283.63;5016606;28;19921;-44
2022/11/09 12:01:55;;;;;;;;;;;;;;;18.85;100.00;98269.66;5018283;28;19920;-44
2022/11/09 12:04:24;;;;;;;;;;;;;;;19.06;100.00;98288.03;5018728;28;19921;-44
2022/11/09 12:06:53;;;;;;;;;;;;;;;18.90;100.00;98277.94;5020467;28;19927;-44
2022/11/09 12:09:44;;;;;;;;;;;;;;;18.20;100.00;98264.13;5005176;28;19929;-44
2022/11/09 12:12:10;;;;;;;;;;;;;;;17.94;100.00;98277.28;5018637;28;21216;-44
2022/11/09 12:14:35;;;;;;;;;;;;;;;17.69;100.00;98280.00;5020025;28;19955;-44
2022/11/09 12:17:26;;;;;;;;;;;;;;;19.05;100.00;98266.31;5018739;28;19925;-44
2022/11/09 12:20:10;;;;;;;;;;;;;;;18.71;100.00;98274.13;5010327;28;19964;-44
2022/11/09 12:22:38;;;;;;;;;;;;;;;18.34;100.00;98263.91;5019766;28;19956;-44
2022/11/09 12:25:10;;;;;;;;;;;;;;;18.38;100.00;98270.56;5019861;28;19914;-45
2022/11/09 12:27:41;;;;;;;;;;;;;;;18.35;100.00;98268.16;5019192;28;19960;-44
2022/11/09 12:30:22;;;;;;;;;;;;;;;18.18;100.00;98271.22;5018041;28;19928;-44
2022/11/09 12:33:02;;;;;;;;;;;;;;;18.72;100.00;98265.34;5018230;28;19982;-44
2022/11/09 12:35:31;;;;;;;;;;;;;;;17.91;100.00;98274.09;5018464;28;19940;-45